createdAt,value
2023-01-12T00:00:11.596Z,21.5
2023-01-12T00:05:19.361Z,21.4
2023-01-12T00:09:54.425Z,21.3
2023-01-12T00:15:00.878Z,22.3
2023-01-12T00:20:23.965Z,23.1
2023-01-12T00:25:30.942Z,22.4
2023-01-12T00:30:38.163Z,22
2023-01-12T00:36:00.402Z,21.7
2023-01-12T00:41:28.450Z,21.5
2023-01-12T00:46:50.790Z,21.3
2023-01-12T00:57:36.046Z,21.6
2023-01-12T01:02:59.383Z,22.3
2023-01-12T01:07:50.298Z,22.1
2023-01-12T01:12:42.438Z,21.8
2023-01-12T01:17:49.924Z,21.4
2023-01-12T01:22:56.589Z,21.3
2023-01-12T01:27:48.635Z,21.1
2023-01-12T01:32:54.734Z,21
2023-01-12T01:38:00.766Z,21.9
2023-01-12T01:43:23.526Z,22.6
2023-01-12T01:48:46.402Z,22.5
2023-01-12T01:53:52.540Z,22
2023-01-12T01:59:15.291Z,21.6
2023-01-12T02:04:26.878Z,21.3
2023-01-12T02:14:41.116Z,20.9
2023-01-12T02:20:02.724Z,21.9
2023-01-12T02:25:24.858Z,22.6
2023-01-12T02:30:32.115Z,22.6
2023-01-12T02:35:54.646Z,22.1
2023-01-12T02:41:18.876Z,21.6
2023-01-12T02:46:42.057Z,21.3
2023-01-12T02:52:02.857Z,21.1
2023-01-12T02:57:25.259Z,20.9
2023-01-12T03:02:48.616Z,22.1
2023-01-12T03:08:10.409Z,22.8
2023-01-12T03:13:17.195Z,22.4
2023-01-12T03:18:40.323Z,21.9
2023-01-12T03:24:02.392Z,21.4
2023-01-12T03:29:09.047Z,21.2
2023-01-12T03:34:31.852Z,21.1
2023-01-12T03:39:54.525Z,21.1
2023-01-12T03:45:17.055Z,22.1
2023-01-12T03:50:39.903Z,22.7
2023-01-12T03:56:01.708Z,22.3
2023-01-12T04:01:23.601Z,21.8
2023-01-12T04:06:47.261Z,21.4
2023-01-12T04:17:01.325Z,21
2023-01-12T04:22:24.062Z,21
2023-01-12T04:27:14.487Z,22
2023-01-12T04:32:36.918Z,22.1
2023-01-12T04:37:59.723Z,20.8
2023-01-12T04:43:24.706Z,21.9
2023-01-12T04:48:46.247Z,22.7
2023-01-12T04:54:09.423Z,22.4
2023-01-12T04:59:31.944Z,21.9
2023-01-12T05:04:57.510Z,21.5
2023-01-12T05:10:20.022Z,21.3
2023-01-12T05:15:41.691Z,21.1
2023-01-12T05:21:07.762Z,21.2
2023-01-12T05:26:14.867Z,22.5
2023-01-12T05:31:38.754Z,23.1
2023-01-12T05:36:45.806Z,22.7
2023-01-12T05:41:52.938Z,22.1
2023-01-12T05:47:15.288Z,21.6
2023-01-12T05:52:36.624Z,21.3
2023-01-12T06:03:06.867Z,21.2
2023-01-12T06:07:59.236Z,22.5
2023-01-12T06:13:08.248Z,23.3
2023-01-12T06:18:30.822Z,23.1
2023-01-12T06:23:53.829Z,22.3
2023-01-12T06:29:16.110Z,21.6
2023-01-12T06:34:38.617Z,21.3
2023-01-12T06:40:09.017Z,20.9
2023-01-12T06:45:32.091Z,20.9
2023-01-12T06:50:54.631Z,21.9
2023-01-12T06:56:16.408Z,22.5
2023-01-12T07:01:40.094Z,22.4
2023-01-12T07:07:02.248Z,21.8
2023-01-12T07:12:25.318Z,21.3
2023-01-12T07:17:51.217Z,21.2
2023-01-12T07:23:13.455Z,21.2
2023-01-12T07:28:38.565Z,21.3
2023-01-12T07:34:01.752Z,22.4
2023-01-12T07:39:25.698Z,22.9
2023-01-12T07:44:48.712Z,22.6
2023-01-12T07:50:13.080Z,22.1
2023-01-12T07:55:35.796Z,21.6
2023-01-12T08:00:58.435Z,21
2023-01-12T08:06:24.927Z,20.9
2023-01-12T08:11:47.110Z,20.8
2023-01-12T08:17:09.590Z,20.6
2023-01-12T08:22:32.273Z,20.6
2023-01-12T08:27:56.736Z,20.4
2023-01-12T08:33:19.359Z,20.6
2023-01-12T08:39:00.269Z,21.8
2023-01-12T08:44:25.085Z,21.9
2023-01-12T08:49:51.081Z,21.4
2023-01-12T08:55:14.333Z,21
2023-01-12T09:00:21.422Z,20.8
2023-01-12T09:05:29.729Z,20.7
2023-01-12T09:10:52.809Z,20.6
2023-01-12T09:16:29.942Z,20.4
2023-01-12T09:21:53.165Z,20.4
2023-01-12T09:27:18.497Z,21.4
2023-01-12T09:32:50.095Z,22.1
2023-01-12T09:38:13.462Z,21.6
2023-01-12T09:48:51.541Z,20.8
2023-01-12T09:54:23.339Z,20.7
2023-01-12T09:59:58.271Z,20.6
2023-01-12T10:05:38.751Z,20.4
2023-01-12T10:11:02.304Z,20.3
2023-01-12T10:21:50.966Z,21.9
2023-01-12T10:27:14.495Z,21.6
2023-01-12T10:32:41.835Z,21.2
2023-01-12T10:38:04.404Z,20.8
2023-01-12T10:43:36.822Z,20.7
2023-01-12T10:49:00.028Z,20.5
2023-01-12T10:54:22.871Z,20.3
2023-01-12T10:59:48.308Z,20.2
2023-01-12T11:05:13.196Z,20.8
2023-01-12T11:10:37.436Z,21.7
2023-01-12T11:16:04.373Z,21.8
2023-01-12T11:21:30.740Z,21.3
2023-01-12T11:26:52.921Z,20.9
2023-01-12T11:32:00.427Z,20.4
2023-01-12T11:37:08.725Z,20.3
2023-01-12T11:42:16.268Z,20.2
2023-01-12T11:47:40.885Z,20.1
2023-01-12T11:53:04.898Z,20.4
2023-01-12T11:58:29.978Z,21.4
2023-01-12T12:03:56.007Z,21.8
2023-01-12T12:09:19.380Z,21.3
2023-01-12T12:14:45.244Z,20.9
2023-01-12T12:19:54.977Z,20.6
2023-01-12T12:25:19.192Z,20.5
2023-01-12T12:30:41.591Z,20.3
2023-01-12T12:35:48.900Z,20.8
2023-01-12T12:41:12.259Z,21.7
2023-01-12T12:46:35.324Z,21.8
2023-01-12T12:51:57.472Z,21.2
2023-01-12T12:57:23.666Z,20.8
2023-01-12T13:02:16.551Z,20.6
2023-01-12T13:07:08.341Z,20.4
2023-01-12T13:12:18.280Z,20.3
2023-01-12T13:17:41.804Z,20.8
2023-01-12T13:23:12.710Z,21.7
2023-01-12T13:28:36.089Z,21.7
2023-01-12T13:38:55.384Z,20.8
2023-01-12T13:44:06.664Z,20.6
2023-01-12T13:49:29.948Z,20.4
2023-01-12T13:54:52.997Z,20.3
2023-01-12T14:00:16.878Z,20.9
2023-01-12T14:05:43.347Z,21.7
2023-01-12T14:11:19.775Z,21.4
2023-01-12T14:16:43.163Z,20.9
2023-01-12T14:22:28.279Z,20.4
2023-01-12T14:27:50.736Z,20.3
2023-01-12T14:33:14.517Z,20.1
2023-01-12T14:38:36.843Z,20.1
2023-01-12T14:43:59.612Z,21.2
2023-01-12T14:49:22.965Z,21.8
2023-01-12T14:54:45.316Z,21.4
2023-01-12T15:00:08.399Z,21.1
2023-01-12T15:05:40.722Z,20.9
2023-01-12T15:11:02.984Z,20.7
2023-01-12T15:16:25.358Z,20.6
2023-01-12T15:21:48.546Z,20.4
2023-01-12T15:27:23.540Z,20.4
2023-01-12T15:32:59.180Z,20.3
2023-01-12T15:38:22.095Z,20.1
2023-01-12T15:43:44.587Z,19.9
2023-01-12T15:49:06.977Z,19.7
2023-01-12T15:54:30.081Z,19.6
2023-01-12T15:59:36.193Z,19.5
2023-01-12T16:06:04.833Z,19.4
2023-01-12T16:11:29.688Z,21.4
2023-01-12T16:16:37.264Z,22.7
2023-01-12T16:21:59.628Z,23.9
2023-01-12T16:27:24.485Z,24.6
2023-01-12T16:32:48.350Z,25.2
2023-01-12T16:38:10.923Z,26
2023-01-12T16:43:18.693Z,25.9
2023-01-12T16:48:28.135Z,26.3
2023-01-12T16:53:51.507Z,27.5
2023-01-12T16:59:16.684Z,27.9
2023-01-12T17:04:45.222Z,28.5
2023-01-12T17:09:39.211Z,28.6
2023-01-12T17:15:14.411Z,29.2
2023-01-12T17:20:25.822Z,29.9
2023-01-12T17:25:50.828Z,30.4
2023-01-12T17:30:45.994Z,30.7
2023-01-12T17:35:55.849Z,30.2
2023-01-12T17:41:19.076Z,31.3
2023-01-12T17:46:43.651Z,31.4
2023-01-12T17:51:54.669Z,31.9
2023-01-12T17:57:27.898Z,32.3
2023-01-12T18:02:37.313Z,31.3
2023-01-12T18:08:23.175Z,31.9
2023-01-12T18:13:46.399Z,31.7
2023-01-12T18:18:56.188Z,31.9
2023-01-12T18:24:19.955Z,32.5
2023-01-12T18:29:44.473Z,32.8
2023-01-12T18:35:09.599Z,33.4
2023-01-12T18:40:35.646Z,33.8
2023-01-12T18:46:00.998Z,33.6
2023-01-12T18:51:11.758Z,33.4
2023-01-12T18:56:39.136Z,32.9
2023-01-12T19:02:07.575Z,32.4
2023-01-12T19:07:36.188Z,32.2
2023-01-12T19:13:06.502Z,32
2023-01-12T19:18:37.316Z,31.4
2023-01-12T19:23:35.767Z,32.3
2023-01-12T19:28:50.970Z,32
2023-01-12T19:34:24.011Z,31.9
2023-01-12T19:40:07.585Z,32.3
2023-01-12T19:45:38.180Z,32.1
2023-01-12T19:51:10.555Z,30.9
2023-01-12T19:56:41.269Z,31.1
2023-01-12T20:01:55.674Z,30.3
2023-01-12T20:07:23.160Z,29.6
2023-01-12T20:12:35.897Z,28.9
2023-01-12T20:18:08.736Z,27.5
2023-01-12T20:23:22.015Z,27.6
2023-01-12T20:28:35.954Z,27.3
2023-01-12T20:34:22.700Z,26.8
2023-01-12T20:39:48.822Z,26.3
2023-01-12T20:45:15.368Z,25.9
2023-01-12T20:50:42.825Z,25.6
2023-01-12T20:56:07.033Z,25.3
2023-01-12T21:01:17.356Z,24.9
2023-01-12T21:06:31.556Z,24.7
2023-01-12T21:11:50.183Z,24.4
2023-01-12T21:17:16.668Z,24.3
2023-01-12T21:22:39.596Z,24.1
2023-01-12T21:28:02.922Z,23.9
2023-01-12T21:33:26.843Z,23.8
2023-01-12T21:38:50.488Z,23.7
2023-01-12T21:43:57.516Z,23.6
2023-01-12T21:49:07.020Z,23.3
2023-01-12T21:54:15.439Z,22.8
2023-01-12T21:59:22.362Z,22.5
2023-01-12T22:04:46.504Z,22.3
2023-01-12T22:09:53.858Z,22.2
2023-01-12T22:15:00.921Z,22.1
2023-01-12T22:20:23.853Z,22
2023-01-12T22:25:46.231Z,22.3
2023-01-12T22:31:08.662Z,23.4
2023-01-12T22:36:34.689Z,22.5
2023-01-12T22:41:41.996Z,22.4
2023-01-12T22:46:48.859Z,22.4
2023-01-12T22:52:19.928Z,22.3
2023-01-12T22:57:42.774Z,22.2
2023-01-12T23:02:49.642Z,22.1
2023-01-12T23:07:57.411Z,21.9
2023-01-12T23:13:04.242Z,22
2023-01-12T23:18:26.507Z,23
2023-01-12T23:23:48.616Z,23.8
2023-01-12T23:28:55.228Z,23.1
2023-01-12T23:34:16.847Z,22.7
2023-01-12T23:39:24.163Z,22.4
2023-01-12T23:44:46.043Z,22.2
2023-01-12T23:50:07.767Z,22
2023-01-12T23:55:29.974Z,22.2
